Time;durP1;ratioP1;P1;durP2;ratioP2;P2;SDS_P1;SDS_P2;PMS_P1;PMS_P2;Temp;Humidity;BMP_temperature;BMP_pressure;BME280_temperature;BME280_humidity;BME280_pressure;Samples;Min_cycle;Max_cycle;Signal;HPM_P1;HPM_P2
2022/04/09 00:00:17;;;;;;;3.50;1.53;;;;;;;6.78;100.00;99985.53;5011892;28;20504;-72
2022/04/09 00:02:42;;;;;;;4.83;1.10;;;;;;;7.05;100.00;100013.19;5011304;28;20271;-72
2022/04/09 00:05:09;;;;;;;1.80;0.80;;;;;;;6.75;100.00;99969.94;5012303;28;20542;-72
2022/04/09 00:07:35;;;;;;;1.67;0.80;;;;;;;6.67;100.00;99970.09;5016308;28;20749;-72
2022/04/09 00:10:00;;;;;;;1.50;1.00;;;;;;;7.07;100.00;100015.66;5017755;28;20513;-72
2022/04/09 00:12:25;;;;;;;4.33;0.80;;;;;;;6.42;100.00;99957.22;5017572;28;20187;-72
2022/04/09 00:14:51;;;;;;;1.70;0.87;;;;;;;6.90;100.00;100010.63;5015056;28;20607;-72
2022/04/09 00:17:16;;;;;;;4.30;1.00;;;;;;;6.78;100.00;100014.84;5016698;28;20229;-72
2022/04/09 00:19:43;;;;;;;2.73;0.73;;;;;;;6.73;100.00;100028.75;5013711;28;20192;-72
2022/04/09 00:22:08;;;;;;;2.73;0.60;;;;;;;6.74;100.00;100033.09;5015973;28;20764;-72
2022/04/09 00:24:33;;;;;;;1.27;0.77;;;;;;;6.67;100.00;100007.41;5012427;28;20431;-72
2022/04/09 00:26:59;;;;;;;2.10;0.90;;;;;;;6.84;100.00;100039.91;5013031;28;20215;-72
2022/04/09 00:29:24;;;;;;;2.30;0.70;;;;;;;5.41;100.00;99900.56;5012706;28;20318;-72
2022/04/09 00:31:50;;;;;;;4.00;1.10;;;;;;;5.92;100.00;99969.63;5015109;28;20254;-72
2022/04/09 00:34:15;;;;;;;4.10;1.00;;;;;;;6.52;100.00;99997.66;5014876;28;20212;-72
2022/04/09 00:36:40;;;;;;;4.40;0.77;;;;;;;6.57;100.00;100029.88;5014488;28;20212;-72
2022/04/09 00:39:06;;;;;;;3.63;0.80;;;;;;;6.78;100.00;100060.16;5019284;28;20558;-72
2022/04/09 00:41:32;;;;;;;2.80;0.73;;;;;;;6.63;100.00;100056.78;5016440;28;20936;-72
2022/04/09 00:43:57;;;;;;;3.13;1.27;;;;;;;6.09;100.00;99973.72;5015157;28;20185;-72
2022/04/09 00:46:23;;;;;;;4.80;1.30;;;;;;;6.29;100.00;100053.78;5015148;28;20470;-72
2022/04/09 00:48:49;;;;;;;5.90;1.00;;;;;;;6.67;100.00;100069.50;5014520;28;20246;-72
2022/04/09 00:51:15;;;;;;;1.80;1.03;;;;;;;6.13;100.00;99962.69;5011852;28;20193;-72
2022/04/09 00:53:42;;;;;;;3.27;0.90;;;;;;;6.76;100.00;100079.00;5016349;28;20466;-72
2022/04/09 00:56:13;;;;;;;3.50;0.97;;;;;;;6.50;100.00;100065.47;5013705;28;20239;-72
2022/04/09 00:58:45;;;;;;;4.27;1.60;;;;;;;6.51;100.00;100024.50;5014712;28;20430;-72
2022/04/09 01:01:10;;;;;;;8.30;1.40;;;;;;;6.44;100.00;100020.94;5014938;28;21030;-72
2022/04/09 01:03:37;;;;;;;4.33;0.97;;;;;;;6.63;100.00;100064.78;5012456;28;20443;-72
2022/04/09 01:06:05;;;;;;;4.63;1.23;;;;;;;6.85;100.00;100105.53;5011356;28;20235;-72
2022/04/09 01:08:31;;;;;;;8.60;1.37;;;;;;;6.77;100.00;100075.34;5014029;28;20835;-72
2022/04/09 01:10:57;;;;;;;4.50;0.87;;;;;;;6.78;100.00;100087.66;5015256;28;20450;-72
2022/04/09 01:13:22;;;;;;;3.10;0.90;;;;;;;6.70;100.00;100078.97;5014539;28;20430;-72
2022/04/09 01:15:48;;;;;;;5.77;1.20;;;;;;;6.62;100.00;100079.91;5013547;28;20212;-72
2022/04/09 01:18:15;;;;;;;2.40;0.80;;;;;;;6.05;100.00;100055.00;5014000;28;20188;-72
2022/04/09 01:20:41;;;;;;;4.80;0.90;;;;;;;6.59;100.00;100120.25;5012973;28;20250;-72
2022/04/09 01:23:06;;;;;;;2.33;1.00;;;;;;;6.60;100.00;100119.25;5014247;28;20434;-72
2022/04/09 01:25:32;;;;;;;4.17;1.10;;;;;;;6.69;100.00;100130.63;5011632;28;20185;-72
2022/04/09 01:27:57;;;;;;;5.47;1.60;;;;;;;6.44;100.00;100132.81;5017288;28;20196;-72
2022/04/09 01:30:22;;;;;;;2.50;0.90;;;;;;;6.39;100.00;100074.78;5014135;28;20192;-72
2022/04/09 01:32:48;;;;;;;6.60;1.30;;;;;;;6.71;100.00;100148.06;5013498;28;20181;-72
2022/04/09 01:35:14;;;;;;;6.20;1.00;;;;;;;6.73;100.00;100130.03;5015023;28;20990;-72
2022/04/09 01:37:39;;;;;;;5.43;1.07;;;;;;;6.81;100.00;100138.94;5014692;28;20262;-72
2022/04/09 01:40:05;;;;;;;2.63;1.00;;;;;;;6.26;100.00;100122.59;5014280;28;20878;-72
2022/04/09 01:42:30;;;;;;;4.87;1.10;;;;;;;6.45;100.00;100140.63;5016082;28;20714;-72
2022/04/09 01:44:56;;;;;;;5.63;1.00;;;;;;;6.70;100.00;100151.72;5012349;28;20678;-72
2022/04/09 01:47:21;;;;;;;6.93;1.33;;;;;;;6.60;100.00;100145.91;5013935;28;20211;-72
2022/04/09 01:49:47;;;;;;;1.67;0.90;;;;;;;6.47;100.00;100119.94;5015740;28;20191;-72
2022/04/09 01:52:13;;;;;;;4.97;1.10;;;;;;;6.77;100.00;100163.31;5011300;28;20829;-73
2022/04/09 01:54:38;;;;;;;6.67;1.23;;;;;;;6.43;100.00;100123.19;5013603;28;20306;-72
2022/04/09 01:57:04;;;;;;;6.70;1.20;;;;;;;6.13;100.00;100078.00;5015632;28;20884;-72
2022/04/09 01:59:29;;;;;;;4.83;0.80;;;;;;;6.27;100.00;100116.25;5011973;28;20199;-72
2022/04/09 02:01:54;;;;;;;4.73;1.50;;;;;;;6.70;100.00;100166.91;5017156;28;20192;-72
2022/04/09 02:04:20;;;;;;;6.40;1.17;;;;;;;6.33;100.00;100118.16;5014825;28;20181;-72
2022/04/09 02:06:46;;;;;;;3.80;1.50;;;;;;;6.36;100.00;100096.47;5009845;28;20789;-72
2022/04/09 02:09:11;;;;;;;2.03;1.00;;;;;;;6.18;100.00;100120.88;5011543;28;20435;-72
2022/04/09 02:11:41;;;;;;;4.80;1.10;;;;;;;6.19;100.00;100095.91;5012160;28;20192;-72
2022/04/09 02:14:09;;;;;;;2.40;1.20;;;;;;;6.61;100.00;100155.53;5014740;28;20592;-72
2022/04/09 02:16:35;;;;;;;4.83;1.17;;;;;;;6.63;100.00;100174.03;5010842;28;20920;-72
2022/04/09 02:19:00;;;;;;;6.77;1.63;;;;;;;6.74;100.00;100201.00;5011814;28;20446;-72
2022/04/09 02:21:25;;;;;;;3.50;1.30;;;;;;;6.84;100.00;100195.34;5011638;28;26420;-72
2022/04/09 02:23:51;;;;;;;5.20;1.10;;;;;;;6.75;100.00;100197.31;5011153;28;20211;-73
2022/04/09 02:26:16;;;;;;;3.27;1.23;;;;;;;6.43;100.00;100152.50;5013604;28;20212;-72
2022/04/09 02:28:41;;;;;;;3.60;1.20;;;;;;;6.70;100.00;100205.03;5012642;28;20183;-72
2022/04/09 02:31:07;;;;;;;5.07;1.20;;;;;;;6.70;100.00;100193.56;5014426;28;20561;-72
2022/04/09 02:33:32;;;;;;;7.57;1.30;;;;;;;6.82;100.00;100197.38;5015847;28;20213;-72
2022/04/09 02:35:58;;;;;;;5.97;1.40;;;;;;;6.87;100.00;100220.81;5012153;28;20212;-71
2022/04/09 02:38:24;;;;;;;5.67;1.47;;;;;;;6.46;100.00;100158.25;5013758;28;20560;-72
2022/04/09 02:40:50;;;;;;;4.60;1.20;;;;;;;6.50;100.00;100212.00;5011091;28;20225;-71
2022/04/09 02:43:16;;;;;;;5.60;1.50;;;;;;;6.94;100.00;100227.00;5016144;28;20579;-72
2022/04/09 02:45:41;;;;;;;6.00;1.40;;;;;;;6.70;100.00;100241.53;5011104;28;20439;-71
2022/04/09 02:48:07;;;;;;;3.90;0.93;;;;;;;6.33;100.00;100190.06;5013661;28;20616;-72
2022/04/09 02:50:32;;;;;;;4.00;1.30;;;;;;;5.89;100.00;100170.44;5015653;28;20525;-72
2022/04/09 02:52:58;;;;;;;1.10;0.80;;;;;;;5.81;100.00;100183.84;5013004;28;20197;-72
2022/04/09 02:55:23;;;;;;;2.30;0.87;;;;;;;6.11;100.00;100231.81;5014165;28;20223;-72
2022/04/09 02:57:50;;;;;;;3.17;1.27;;;;;;;6.49;100.00;100237.00;5012102;28;20303;-71
2022/04/09 03:00:16;;;;;;;2.33;1.00;;;;;;;6.41;100.00;100232.59;5010557;28;20250;-72
2022/04/09 03:02:44;;;;;;;3.80;1.13;;;;;;;5.90;100.00;100160.63;5010778;28;20457;-72
2022/04/09 03:05:10;;;;;;;3.47;1.30;;;;;;;6.52;100.00;100257.94;5007702;28;20436;-72
2022/04/09 03:07:36;;;;;;;5.43;1.10;;;;;;;6.46;100.00;100254.16;5012095;28;20466;-72
2022/04/09 03:10:02;;;;;;;2.97;1.30;;;;;;;6.43;100.00;100246.56;5012640;28;20449;-72
2022/04/09 03:12:28;;;;;;;5.97;1.13;;;;;;;6.11;100.00;100166.06;5007764;28;20282;-72
2022/04/09 03:14:54;;;;;;;3.47;1.20;;;;;;;6.43;100.00;100254.53;5009954;28;20459;-72
2022/04/09 03:17:19;;;;;;;7.87;1.50;;;;;;;5.85;100.00;100157.72;5010382;28;20216;-72
2022/04/09 03:19:44;;;;;;;3.40;1.03;;;;;;;6.15;100.00;100214.44;5008284;28;21256;-73
2022/04/09 03:22:10;;;;;;;3.77;1.10;;;;;;;6.24;100.00;100215.16;5008210;28;20783;-72
2022/04/09 03:24:35;;;;;;;5.27;1.47;;;;;;;6.07;100.00;100273.91;5027524;28;20185;-72
2022/04/09 03:27:00;;;;;;;7.23;1.50;;;;;;;6.31;100.00;100264.03;5012774;28;21310;-72
2022/04/09 03:29:26;;;;;;;3.73;1.33;;;;;;;5.84;100.00;100195.97;5011560;28;21516;-72
2022/04/09 03:31:52;;;;;;;2.90;1.43;;;;;;;6.20;100.00;100269.81;5009859;28;20263;-72
2022/04/09 03:34:17;;;;;;;4.97;1.40;;;;;;;6.20;100.00;100273.31;5012230;28;20594;-72
2022/04/09 03:36:43;;;;;;;4.00;1.40;;;;;;;6.52;100.00;100277.41;5010039;28;20458;-72
2022/04/09 03:39:09;;;;;;;7.93;1.60;;;;;;;6.23;100.00;100237.50;5013509;28;20609;-72
2022/04/09 03:41:35;;;;;;;5.73;1.90;;;;;;;6.03;100.00;100174.13;5010967;28;20685;-72
2022/04/09 03:44:00;;;;;;;7.37;1.60;;;;;;;6.52;100.00;100287.25;5010483;28;20451;-72
2022/04/09 03:46:26;;;;;;;12.23;1.80;;;;;;;5.83;100.00;100235.06;5011125;28;20238;-72
2022/04/09 03:48:51;;;;;;;7.23;1.80;;;;;;;6.32;100.00;100285.13;5012043;28;20647;-72
2022/04/09 03:51:17;;;;;;;4.33;1.60;;;;;;;6.18;100.00;100269.97;5011182;28;20192;-72
2022/04/09 03:53:42;;;;;;;16.77;2.20;;;;;;;6.29;100.00;100284.69;5008831;28;20287;-72
2022/04/09 03:56:08;;;;;;;7.27;2.20;;;;;;;6.33;100.00;100293.94;5025010;22;20462;-73
2022/04/09 03:58:36;;;;;;;5.33;1.07;;;;;;;6.42;100.00;100308.00;4992052;28;20255;-73
2022/04/09 04:01:02;;;;;;;5.83;1.27;;;;;;;6.61;100.00;100304.78;4990111;28;20608;-73
2022/04/09 04:03:28;;;;;;;4.63;1.40;;;;;;;6.30;100.00;100308.47;4989850;28;20440;-73
2022/04/09 04:05:53;;;;;;;3.53;1.10;;;;;;;6.24;100.00;100301.19;4989095;28;20462;-73
2022/04/09 04:08:19;;;;;;;4.27;1.20;;;;;;;6.54;100.00;100310.03;4993724;28;20454;-73
2022/04/09 04:10:44;;;;;;;3.63;1.87;;;;;;;6.37;100.00;100265.13;4996532;28;20848;-73
2022/04/09 04:13:11;;;;;;;3.63;1.00;;;;;;;6.44;100.00;100301.47;4991856;28;20490;-73
2022/04/09 04:15:36;;;;;;;2.73;1.10;;;;;;;6.28;100.00;100321.16;4990449;28;20809;-73
2022/04/09 04:18:03;;;;;;;2.23;0.73;;;;;;;6.17;100.00;100294.97;4993780;28;20463;-73
2022/04/09 04:20:29;;;;;;;3.50;1.20;;;;;;;6.21;100.00;100320.22;4988628;28;20192;-73
2022/04/09 04:22:55;;;;;;;3.43;1.00;;;;;;;6.07;100.00;100308.53;4991373;28;20452;-73
2022/04/09 04:25:21;;;;;;;2.67;0.90;;;;;;;5.99;100.00;100262.53;4996432;28;20246;-73
2022/04/09 04:27:49;;;;;;;2.37;0.80;;;;;;;5.72;100.00;100277.25;4990997;28;20467;-73
2022/04/09 04:30:15;;;;;;;2.20;0.90;;;;;;;6.32;100.00;100338.41;4990956;28;21012;-73
2022/04/09 04:32:42;;;;;;;11.23;1.00;;;;;;;6.30;100.00;100332.44;4989821;28;20882;-73
2022/04/09 04:35:08;;;;;;;2.20;0.80;;;;;;;5.55;100.00;100282.72;4992599;28;20977;-73
2022/04/09 04:37:41;;;;;;;2.73;1.00;;;;;;;5.97;100.00;100301.84;4989091;28;20459;-73
2022/04/09 04:40:07;;;;;;;4.83;0.97;;;;;;;6.09;100.00;100316.34;4989605;28;20469;-73
2022/04/09 04:42:33;;;;;;;2.20;0.90;;;;;;;5.81;100.00;100278.81;4990815;28;20451;-73
2022/04/09 04:44:58;;;;;;;5.93;1.43;;;;;;;6.00;100.00;100326.25;4989039;28;20440;-73
2022/04/09 04:47:23;;;;;;;3.00;1.00;;;;;;;6.00;100.00;100334.25;4989703;28;20230;-73
2022/04/09 04:49:49;;;;;;;6.03;1.57;;;;;;;5.92;100.00;100301.53;4989902;28;20614;-73
2022/04/09 04:52:14;;;;;;;12.90;1.77;;;;;;;6.40;100.00;100363.31;4990686;28;20199;-73
2022/04/09 04:54:40;;;;;;;9.87;2.10;;;;;;;6.18;100.00;100359.72;4993645;28;21383;-73
2022/04/09 04:57:05;;;;;;;6.50;1.30;;;;;;;6.09;100.00;100367.78;4995376;28;20225;-73
2022/04/09 04:59:31;;;;;;;3.40;1.13;;;;;;;6.61;100.00;100371.41;4989190;28;20194;-74
2022/04/09 05:01:56;;;;;;;7.20;1.47;;;;;;;6.44;100.00;100380.59;4992224;28;21105;-73
2022/04/09 05:04:22;;;;;;;17.70;2.63;;;;;;;6.55;100.00;100375.63;4994628;28;20281;-73
2022/04/09 05:06:49;;;;;;;3.93;1.33;;;;;;;6.18;100.00;100378.34;4990944;28;20205;-73
2022/04/09 05:09:14;;;;;;;4.07;1.40;;;;;;;6.17;100.00;100348.22;4991966;28;20667;-73
2022/04/09 05:11:40;;;;;;;4.77;1.27;;;;;;;6.01;100.00;100290.63;4990493;28;20447;-73
2022/04/09 05:14:06;;;;;;;5.20;1.60;;;;;;;6.38;100.00;100390.13;4995446;28;20495;-74
2022/04/09 05:16:31;;;;;;;3.70;1.33;;;;;;;6.25;100.00;100363.28;4993422;28;20221;-74
2022/04/09 05:18:56;;;;;;;7.50;1.60;;;;;;;6.55;100.00;100382.78;4996023;28;20276;-75
2022/04/09 05:21:22;;;;;;;6.80;1.33;;;;;;;6.48;100.00;100397.84;4997208;28;20638;-73
2022/04/09 05:23:47;;;;;;;4.97;1.57;;;;;;;6.61;100.00;100416.69;4996293;28;20329;-73
2022/04/09 05:26:13;;;;;;;4.40;1.50;;;;;;;6.57;100.00;100429.56;4988606;28;20724;-72
2022/04/09 05:28:38;;;;;;;4.43;1.37;;;;;;;6.08;100.00;100386.59;4988655;28;20198;-73
2022/04/09 05:31:04;;;;;;;3.77;1.17;;;;;;;6.33;100.00;100422.66;4990702;28;20185;-72
2022/04/09 05:33:30;;;;;;;7.97;1.37;;;;;;;5.98;100.00;100378.03;4992020;28;20662;-73
2022/04/09 05:35:56;;;;;;;2.40;1.10;;;;;;;6.30;100.00;100430.97;4992043;28;20213;-72
2022/04/09 05:38:22;;;;;;;3.37;1.20;;;;;;;6.26;100.00;100423.56;4984131;28;20197;-73
2022/04/09 05:40:48;;;;;;;4.17;1.73;;;;;;;5.92;100.00;100438.09;4984090;28;20985;-73
2022/04/09 05:43:13;;;;;;;4.17;1.20;;;;;;;6.09;100.00;100433.50;4988416;28;20290;-73
2022/04/09 05:45:39;;;;;;;2.97;0.93;;;;;;;6.10;100.00;100428.03;4986897;28;20452;-72
2022/04/09 05:48:04;;;;;;;3.63;0.97;;;;;;;6.26;100.00;100440.34;4991833;28;20761;-71
2022/04/09 05:50:30;;;;;;;3.40;1.07;;;;;;;6.28;100.00;100445.50;4996445;28;20632;-71
2022/04/09 05:52:55;;;;;;;9.20;1.03;;;;;;;6.38;100.00;100435.41;4994947;28;20193;-71
2022/04/09 05:55:21;;;;;;;3.47;1.00;;;;;;;6.15;100.00;100421.31;4991556;28;20221;-71
2022/04/09 05:57:47;;;;;;;8.10;1.70;;;;;;;6.19;100.00;100422.59;4994452;28;20907;-72
2022/04/09 06:00:14;;;;;;;9.13;1.10;;;;;;;6.49;100.00;100477.59;4995519;28;20295;-72
2022/04/09 06:02:39;;;;;;;3.73;0.93;;;;;;;6.03;100.00;100472.34;4995561;28;20197;-72
2022/04/09 06:05:08;;;;;;;1.67;0.80;;;;;;;6.26;100.00;100501.63;4988493;28;20471;-72
2022/04/09 06:07:34;;;;;;;3.07;1.23;;;;;;;5.78;100.00;100461.00;4987345;28;21483;-72
2022/04/09 06:10:00;;;;;;;1.90;0.80;;;;;;;5.99;100.00;100504.81;4997416;28;20442;-72
2022/04/09 06:12:25;;;;;;;1.80;0.60;;;;;;;5.94;100.00;100508.00;4994591;28;20445;-71
2022/04/09 06:14:51;;;;;;;2.53;0.80;;;;;;;6.09;100.00;100497.41;4995228;28;20346;-72
2022/04/09 06:17:16;;;;;;;24.67;2.17;;;;;;;6.02;100.00;100460.03;4995787;28;20216;-70
2022/04/09 06:19:41;;;;;;;2.30;0.87;;;;;;;5.81;100.00;100455.31;4994621;28;20267;-74
2022/04/09 06:22:07;;;;;;;3.60;1.20;;;;;;;5.85;100.00;100445.97;4995425;28;20439;-77
2022/04/09 06:24:32;;;;;;;4.43;1.40;;;;;;;5.55;100.00;100410.41;4995763;28;20441;-74
2022/04/09 06:26:58;;;;;;;2.67;1.03;;;;;;;5.75;100.00;100428.59;4990771;28;20299;-76
2022/04/09 06:29:23;;;;;;;3.90;0.90;;;;;;;6.13;100.00;100533.31;4999072;28;20190;-74
2022/04/09 06:31:49;;;;;;;4.17;1.13;;;;;;;5.88;100.00;100501.53;4989593;28;20193;-76
2022/04/09 06:34:15;;;;;;;6.47;1.00;;;;;;;5.83;100.00;100535.00;4997575;28;20267;-77
2022/04/09 06:36:40;;;;;;;4.90;1.30;;;;;;;5.37;100.00;100442.63;4996119;28;20685;-75
2022/04/09 06:39:06;;;;;;;5.50;1.50;;;;;;;5.95;100.00;100530.94;4996321;28;20524;-75
2022/04/09 06:41:33;;;;;;;2.60;1.30;;;;;;;6.03;100.00;100535.41;4989575;28;20596;-75
2022/04/09 06:43:58;;;;;;;6.00;1.40;;;;;;;5.48;100.00;100478.63;4996364;28;20256;-75
2022/04/09 06:46:24;;;;;;;6.00;1.00;;;;;;;5.83;100.00;100493.22;4992613;28;20479;-73
2022/04/09 06:48:50;;;;;;;1.70;0.70;;;;;;;5.76;100.00;100500.28;4991581;28;20181;-74
2022/04/09 06:51:16;;;;;;;2.93;0.70;;;;;;;5.96;100.00;100506.00;4994422;28;20589;-76
2022/04/09 06:53:41;;;;;;;3.23;1.20;;;;;;;5.92;100.00;100472.72;4996583;28;20468;-80
2022/04/09 06:56:07;;;;;;;3.50;1.27;;;;;;;6.08;100.00;100546.38;4996220;28;20454;-77
2022/04/09 06:58:33;;;;;;;5.80;1.03;;;;;;;6.26;100.00;100564.72;4993027;28;20204;-73
2022/04/09 07:00:59;;;;;;;12.20;1.87;;;;;;;6.04;100.00;100505.94;4985505;28;20235;-75
2022/04/09 07:03:25;;;;;;;6.43;1.50;;;;;;;6.44;100.00;100573.22;4994564;28;21948;-77
2022/04/09 07:05:50;;;;;;;16.90;1.90;;;;;;;6.57;100.00;100522.00;4991329;28;20200;-72
2022/04/09 07:08:16;;;;;;;80.30;14.37;;;;;;;6.52;100.00;100511.88;4986678;28;20447;-79
2022/04/09 07:10:41;;;;;;;25.67;3.63;;;;;;;6.68;100.00;100558.03;4991793;28;20189;-75
2022/04/09 07:13:07;;;;;;;9.63;2.03;;;;;;;6.61;100.00;100552.63;4992988;28;20328;-75
2022/04/09 07:15:34;;;;;;;6.73;1.50;;;;;;;6.54;100.00;100571.16;4995416;28;20209;-70
2022/04/09 07:17:59;;;;;;;5.30;1.37;;;;;;;6.88;100.00;100569.84;4997779;28;20730;-71
2022/04/09 07:20:25;;;;;;;3.67;1.00;;;;;;;6.68;100.00;100566.91;4993389;28;20456;-71
2022/04/09 07:22:50;;;;;;;8.73;1.50;;;;;;;6.73;100.00;100585.00;4998270;28;20480;-72
2022/04/09 07:25:16;;;;;;;3.80;1.27;;;;;;;6.73;100.00;100564.50;4994924;28;20196;-72
2022/04/09 07:27:46;;;;;;;5.00;1.33;;;;;;;6.90;100.00;100589.16;4993296;28;20557;-75
2022/04/09 07:30:15;;;;;;;7.50;1.80;;;;;;;7.02;100.00;100585.06;4996862;28;20472;-74
2022/04/09 07:32:41;;;;;;;11.77;1.83;;;;;;;6.82;100.00;100601.75;4991710;28;20444;-71
2022/04/09 07:35:07;;;;;;;8.50;1.30;;;;;;;7.00;100.00;100599.56;4988948;28;20475;-72
2022/04/09 07:37:32;;;;;;;7.07;1.77;;;;;;;6.69;100.00;100546.41;4993314;28;20459;-72
2022/04/09 07:39:58;;;;;;;11.40;2.67;;;;;;;6.60;100.00;100519.00;4996566;28;20444;-72
2022/04/09 07:42:23;;;;;;;10.70;1.93;;;;;;;6.95;100.00;100618.78;4995806;28;20432;-72
2022/04/09 07:44:51;;;;;;;5.50;1.30;;;;;;;6.80;100.00;100551.28;4995815;28;20244;-72
2022/04/09 07:47:16;;;;;;;6.83;1.70;;;;;;;6.90;100.00;100557.19;4983636;28;20464;-71
2022/04/09 07:49:44;;;;;;;10.40;2.60;;;;;;;7.04;100.00;100605.38;4989095;28;20794;-74
2022/04/09 07:52:13;;;;;;;10.53;1.67;;;;;;;7.22;100.00;100608.53;4996048;28;20254;-74
2022/04/09 07:54:39;;;;;;;5.40;1.67;;;;;;;6.79;100.00;100565.59;4992561;28;21039;-74
2022/04/09 07:57:05;;;;;;;7.63;2.17;;;;;;;7.17;100.00;100593.06;4992006;28;20725;-77
2022/04/09 07:59:30;;;;;;;6.60;2.00;;;;;;;6.95;100.00;100583.31;4987563;28;20937;-81
2022/04/09 08:01:56;;;;;;;6.20;1.90;;;;;;;7.30;100.00;100628.97;4994804;28;20435;-76
2022/04/09 08:04:21;;;;;;;11.83;2.37;;;;;;;7.04;100.00;100584.88;4996998;28;20585;-77
2022/04/09 08:06:46;;;;;;;69.03;9.43;;;;;;;6.98;100.00;100540.28;4991088;28;20481;-77
2022/04/09 08:09:12;;;;;;;8.50;2.40;;;;;;;7.24;100.00;100596.69;4997267;28;20832;-76
2022/04/09 08:11:37;;;;;;;8.57;1.63;;;;;;;7.30;100.00;100631.66;4993762;28;20667;-78
2022/04/09 08:14:03;;;;;;;6.00;1.90;;;;;;;7.18;100.00;100639.25;4984346;28;20219;-80
2022/04/09 08:16:29;;;;;;;6.77;1.67;;;;;;;7.02;100.00;100577.03;4986249;28;20208;-79
2022/04/09 08:18:54;;;;;;;10.17;2.73;;;;;;;7.30;100.00;100648.47;4993466;28;20188;-78
2022/04/09 08:21:20;;;;;;;5.47;1.70;;;;;;;7.48;100.00;100662.28;4986210;28;20477;-78
2022/04/09 08:23:47;;;;;;;6.93;2.00;;;;;;;7.32;100.00;100648.28;4992291;28;20257;-80
2022/04/09 08:26:13;;;;;;;13.15;2.58;;;;;;;7.13;100.00;100623.78;4992681;28;20431;-78
2022/04/09 08:28:39;;;;;;;595.67;70.33;;;;;;;7.50;100.00;100674.63;4994403;28;20192;-77
2022/04/09 08:31:04;;;;;;;14.80;3.87;;;;;;;7.38;100.00;100663.59;4997093;28;20458;-77
2022/04/09 08:33:30;;;;;;;11.90;2.53;;;;;;;7.06;100.00;100604.22;4996919;28;20506;-78
2022/04/09 08:35:55;;;;;;;7.10;1.90;;;;;;;7.56;100.00;100664.06;4992573;28;20650;-77
2022/04/09 08:38:21;;;;;;;7.53;2.27;;;;;;;7.62;100.00;100681.19;4997329;28;20268;-76
2022/04/09 08:40:47;;;;;;;11.97;2.30;;;;;;;7.60;100.00;100686.69;4998651;28;20284;-76
2022/04/09 08:43:13;;;;;;;9.23;2.40;;;;;;;7.32;100.00;100633.13;4993715;28;20181;-80
2022/04/09 08:45:40;;;;;;;4.77;1.30;;;;;;;7.76;100.00;100704.38;5000971;28;21244;-78
2022/04/09 08:48:07;;;;;;;11.63;2.03;;;;;;;7.16;100.00;100631.44;4998678;28;20468;-77
2022/04/09 08:50:35;;;;;;;12.33;2.70;;;;;;;7.51;100.00;100658.44;4997674;28;20878;-81
2022/04/09 08:53:06;;;;;;;8.60;1.93;;;;;;;7.63;100.00;100693.50;4994312;28;20945;-78
2022/04/09 08:55:36;;;;;;;11.30;1.90;;;;;;;7.46;100.00;100680.34;5004919;28;21066;-77
2022/04/09 08:58:01;;;;;;;82.97;8.83;;;;;;;7.48;100.00;100662.28;4998514;28;20459;-73
2022/04/09 09:00:27;;;;;;;9.33;2.20;;;;;;;7.30;100.00;100616.47;5001313;28;20443;-76
2022/04/09 09:02:55;;;;;;;8.73;2.00;;;;;;;7.57;100.00;100643.53;5002643;28;20193;-76
2022/04/09 09:05:32;;;;;;;9.67;2.00;;;;;;;8.07;100.00;100720.22;4996820;28;20217;-75
2022/04/09 09:07:58;;;;;;;4.33;1.47;;;;;;;8.01;100.00;100709.44;4999328;28;20538;-75
2022/04/09 09:10:23;;;;;;;33.90;5.43;;;;;;;8.03;100.00;100715.44;5000094;28;20536;-79
2022/04/09 09:13:09;;;;;;;9.40;2.60;;;;;;;7.99;100.00;100723.00;5002505;28;20845;-77
2022/04/09 09:15:55;;;;;;;9.00;1.87;;;;;;;7.74;100.00;100734.94;5002237;28;20467;-74
2022/04/09 09:18:20;;;;;;;7.87;1.80;;;;;;;7.83;100.00;100742.69;5000196;28;20514;-76
2022/04/09 09:20:51;;;;;;;10.10;2.13;;;;;;;7.75;100.00;100742.75;4997767;28;20535;-75
2022/04/09 09:23:24;;;;;;;6.35;1.70;;;;;;;7.55;100.00;100722.94;4998799;28;20470;-73
2022/04/09 09:25:51;;;;;;;10.02;2.75;;;;;;;7.41;100.00;100761.97;4999381;28;20429;-75
2022/04/09 09:28:25;;;;;;;6.40;1.90;;;;;;;7.47;100.00;100748.72;5001170;28;20231;-76
2022/04/09 09:30:50;;;;;;;5.93;1.80;;;;;;;7.33;100.00;100733.50;4992102;28;20444;-73
2022/04/09 09:33:16;;;;;;;8.50;1.83;;;;;;;7.03;100.00;100729.91;4988776;28;20486;-72
2022/04/09 09:35:55;;;;;;;5.73;1.70;;;;;;;7.48;100.00;100774.38;4995854;28;20213;-70
2022/04/09 09:38:24;;;;;;;6.70;1.93;;;;;;;7.54;100.00;100777.34;4994752;28;20257;-76
2022/04/09 09:40:51;;;;;;;13.43;2.57;;;;;;;7.33;100.00;100760.19;4993575;28;21114;-75
2022/04/09 09:43:18;;;;;;;11.20;2.33;;;;;;;7.31;100.00;100735.50;4998724;28;21012;-84
2022/04/09 09:45:45;;;;;;;12.77;2.20;;;;;;;7.79;100.00;100767.28;4995653;28;20437;-80
2022/04/09 09:48:28;;;;;;;8.50;2.10;;;;;;;7.77;100.00;100774.63;4986730;28;20456;-76
2022/04/09 09:50:56;;;;;;;16.80;2.60;;;;;;;7.80;100.00;100748.38;4988463;28;20473;-77
2022/04/09 09:53:32;;;;;;;11.27;2.30;;;;;;;7.92;100.00;100775.47;4995904;28;20448;-80
2022/04/09 09:55:59;;;;;;;8.40;1.90;;;;;;;7.77;100.00;100723.91;5003585;28;20484;-79
2022/04/09 09:58:27;;;;;;;4.93;1.67;;;;;;;7.78;100.00;100774.47;5015153;22;20547;-69
2022/04/09 10:00:55;;;;;;;5.57;1.27;;;;;;;7.80;100.00;100806.31;4974488;28;20496;-71
2022/04/09 10:03:21;;;;;;;4.57;1.03;;;;;;;7.68;100.00;100819.25;4979505;28;20942;-73
2022/04/09 10:05:48;;;;;;;3.63;1.37;;;;;;;7.28;100.00;100791.88;4978283;28;20994;-74
2022/04/09 10:08:14;;;;;;;2.90;0.97;;;;;;;7.26;100.00;100769.88;4976752;28;20472;-74
2022/04/09 10:10:43;;;;;;;1.53;0.70;;;;;;;7.52;100.00;100806.03;4954330;28;20478;-74
2022/04/09 10:13:10;;;;;;;3.40;1.07;;;;;;;7.01;100.00;100730.06;4979250;28;20438;-74
2022/04/09 10:15:39;;;;;;;4.00;0.90;;;;;;;7.41;100.00;100741.44;4975422;28;20481;-74
2022/04/09 10:18:06;;;;;;;4.70;1.20;;;;;;;7.60;100.00;100763.28;4975466;28;20451;-74
2022/04/09 10:20:33;;;;;;;3.60;1.23;;;;;;;8.05;100.00;100809.56;4971840;28;20458;-74
2022/04/09 10:23:01;;;;;;;6.77;1.23;;;;;;;8.12;100.00;100797.13;4973828;28;20472;-73
2022/04/09 10:25:29;;;;;;;5.53;1.73;;;;;;;8.06;100.00;100787.19;4969836;28;20437;-72
2022/04/09 10:28:03;;;;;;;7.00;1.50;;;;;;;7.48;100.00;100731.69;4975626;28;20456;-73
2022/04/09 10:30:37;;;;;;;6.43;1.60;;;;;;;8.34;100.00;100809.59;4975225;28;20962;-73
2022/04/09 10:33:02;;;;;;;17.73;1.97;;;;;;;7.76;100.00;100749.78;4977881;28;20506;-72
2022/04/09 10:35:30;;;;;;;11.03;1.90;;;;;;;8.35;100.00;100818.41;4967696;28;20975;-71
2022/04/09 10:38:12;;;;;;;13.73;2.13;;;;;;;8.24;100.00;100808.19;4970892;28;20672;-71
2022/04/09 10:40:43;;;;;;;8.73;2.27;;;;;;;8.29;100.00;100817.31;4970548;28;20465;-71
2022/04/09 10:43:21;;;;;;;6.73;1.70;;;;;;;8.29;100.00;100811.16;4973547;28;20451;-71
2022/04/09 10:46:15;;;;;;;7.53;1.90;;;;;;;8.11;100.00;100824.88;4973769;28;20441;-71
2022/04/09 10:48:42;;;;;;;3.97;1.43;;;;;;;7.69;100.00;100764.84;4955640;28;20558;-73
2022/04/09 10:51:12;;;;;;;5.77;1.60;;;;;;;8.19;100.00;100813.25;4971535;28;20448;-72
2022/04/09 10:53:42;;;;;;;6.07;1.83;;;;;;;8.12;100.00;100800.63;4971804;28;20452;-72
2022/04/09 10:56:26;;;;;;;10.73;2.00;;;;;;;8.15;100.00;100847.53;4974484;28;20441;-72
2022/04/09 10:59:13;;;;;;;5.80;1.23;;;;;;;8.16;100.00;100857.22;4971915;28;20475;-72
2022/04/09 11:01:48;;;;;;;5.47;1.27;;;;;;;8.37;100.00;100843.13;4977774;28;20963;-71
2022/04/09 11:07:12;;;;;;;9.00;1.30;;;;;;;8.27;100.00;100869.28;4971384;28;20452;-71
2022/04/09 11:09:48;;;;;;;4.23;1.70;;;;;;;8.30;100.00;100869.78;4974211;28;20467;-71
2022/04/09 11:12:15;;;;;;;4.90;1.03;;;;;;;8.43;100.00;100874.50;4977358;28;20433;-72
2022/04/09 11:14:51;;;;;;;4.30;1.73;;;;;;;8.46;100.00;100865.28;4976255;28;20486;-70
2022/04/09 11:17:39;;;;;;;6.43;1.20;;;;;;;8.26;100.00;100876.47;4975531;28;21490;-71
2022/04/09 11:20:18;;;;;;;4.40;1.00;;;;;;;8.44;100.00;100869.97;4975506;28;20467;-71
2022/04/09 11:22:47;;;;;;;3.13;1.10;;;;;;;8.25;100.00;100890.84;4972361;28;20831;-71
2022/04/09 11:25:26;;;;;;;6.80;1.70;;;;;;;8.34;100.00;100856.88;4977445;28;20445;-70